createdAt,value
2018-08-24T00:01:52.107Z,81.10
2018-08-24T00:04:19.411Z,81.40
2018-08-24T00:06:46.761Z,81.30
2018-08-24T00:09:15.157Z,81.20
2018-08-24T00:11:42.462Z,81.10
2018-08-24T00:14:11.095Z,81.20
2018-08-24T00:16:39.673Z,81.30
2018-08-24T00:19:10.621Z,81.50
2018-08-24T00:21:38.166Z,81.80
2018-08-24T00:24:06.137Z,82.00
2018-08-24T00:26:33.831Z,82.30
2018-08-24T00:29:01.141Z,82.30
2018-08-24T00:31:28.430Z,82.30
2018-08-24T00:33:55.777Z,82.20
2018-08-24T00:36:24.871Z,82.40
2018-08-24T00:38:52.165Z,82.30
2018-08-24T00:41:19.671Z,82.20
2018-08-24T00:43:46.992Z,82.10
2018-08-24T00:46:14.277Z,81.70
2018-08-24T00:48:41.596Z,81.30
2018-08-24T00:51:09.189Z,80.70
2018-08-24T00:53:38.896Z,80.20
2018-08-24T00:56:07.627Z,79.90
2018-08-24T00:58:35.856Z,79.90
2018-08-24T01:01:03.164Z,79.80
2018-08-24T01:03:30.509Z,80.70
2018-08-24T01:05:58.019Z,80.10
2018-08-24T01:08:25.485Z,80.20
2018-08-24T01:10:52.769Z,80.40
2018-08-24T01:13:20.180Z,80.40
2018-08-24T01:15:49.953Z,80.80
2018-08-24T01:18:21.146Z,81.00
2018-08-24T01:20:49.455Z,81.30
2018-08-24T01:23:17.592Z,81.50
2018-08-24T01:25:44.947Z,81.50
2018-08-24T01:28:12.239Z,81.50
2018-08-24T01:30:39.541Z,81.30
2018-08-24T01:33:06.839Z,81.30
2018-08-24T01:35:34.160Z,81.30
2018-08-24T01:38:01.550Z,81.10
2018-08-24T01:40:28.899Z,81.10
2018-08-24T01:42:56.220Z,81.00
2018-08-24T01:45:23.790Z,81.10
2018-08-24T01:47:51.088Z,81.10
2018-08-24T01:50:18.380Z,81.10
2018-08-24T01:52:45.699Z,81.30
2018-08-24T01:55:12.988Z,81.30
2018-08-24T01:57:40.435Z,81.50
2018-08-24T02:00:07.776Z,81.40
2018-08-24T02:02:35.595Z,81.40
2018-08-24T02:05:02.983Z,81.50
2018-08-24T02:07:30.296Z,81.40
2018-08-24T02:09:57.636Z,81.60
2018-08-24T02:12:31.034Z,81.60
2018-08-24T02:14:58.351Z,81.70
2018-08-24T02:17:31.453Z,81.90
2018-08-24T02:20:04.416Z,82.00
2018-08-24T02:22:31.730Z,82.10
2018-08-24T02:24:59.023Z,82.30
2018-08-24T02:27:26.342Z,82.40
2018-08-24T02:29:56.967Z,82.50
2018-08-24T02:32:24.300Z,82.60
2018-08-24T02:34:51.619Z,82.80
2018-08-24T02:37:18.963Z,83.10
2018-08-24T02:39:46.288Z,83.40
2018-08-24T02:42:13.578Z,83.80
2018-08-24T02:44:40.877Z,83.40
2018-08-24T02:47:08.225Z,83.40
2018-08-24T02:49:35.791Z,83.20
2018-08-24T02:52:03.140Z,83.10
2018-08-24T02:54:30.469Z,83.00
2018-08-24T02:56:57.820Z,82.80
2018-08-24T02:59:25.107Z,83.00
2018-08-24T03:01:52.392Z,83.10
2018-08-24T03:04:19.683Z,83.30
2018-08-24T03:06:47.176Z,83.70
2018-08-24T03:09:14.483Z,83.70
2018-08-24T03:11:41.803Z,83.60
2018-08-24T03:14:09.342Z,83.50
2018-08-24T03:16:36.672Z,83.30
2018-08-24T03:19:03.967Z,83.40
2018-08-24T03:21:31.322Z,83.60
2018-08-24T03:23:58.648Z,83.80
2018-08-24T03:26:25.963Z,84.00
2018-08-24T03:28:53.459Z,84.00
2018-08-24T03:31:20.771Z,84.10
2018-08-24T03:33:48.095Z,84.10
2018-08-24T03:36:15.426Z,84.00
2018-08-24T03:38:43.088Z,84.00
2018-08-24T03:41:10.406Z,84.00
2018-08-24T03:43:37.725Z,83.80
2018-08-24T03:46:05.097Z,83.70
2018-08-24T03:48:33.432Z,83.60
2018-08-24T03:51:00.792Z,83.50
2018-08-24T03:53:28.098Z,83.50
2018-08-24T03:55:55.600Z,83.70
2018-08-24T03:58:22.944Z,83.70
2018-08-24T04:00:54.883Z,83.40
2018-08-24T04:03:22.279Z,83.40
2018-08-24T04:05:49.599Z,83.50
2018-08-24T04:08:16.936Z,83.30
2018-08-24T04:10:44.242Z,83.20
2018-08-24T04:13:11.539Z,83.00
2018-08-24T04:15:38.829Z,83.10
2018-08-24T04:18:06.198Z,83.20
2018-08-24T04:20:33.491Z,83.30
2018-08-24T04:23:00.800Z,83.40
2018-08-24T04:25:28.110Z,83.40
2018-08-24T04:27:55.479Z,83.30
2018-08-24T04:30:22.796Z,83.10
2018-08-24T04:32:50.111Z,83.00
2018-08-24T04:35:17.424Z,83.00
2018-08-24T04:37:44.772Z,82.80
2018-08-24T04:40:12.168Z,82.80
2018-08-24T04:42:39.469Z,82.90
2018-08-24T04:45:06.808Z,83.10
2018-08-24T04:47:34.141Z,83.40
2018-08-24T04:50:01.424Z,83.40
2018-08-24T04:52:28.765Z,83.50
2018-08-24T04:54:56.103Z,83.40
2018-08-24T04:57:23.388Z,83.40
2018-08-24T04:59:50.703Z,83.30
2018-08-24T05:02:18.011Z,83.30
2018-08-24T05:04:45.385Z,83.40
2018-08-24T05:07:12.686Z,83.40
2018-08-24T05:09:39.981Z,83.10
2018-08-24T05:12:07.332Z,83.10
2018-08-24T05:14:34.620Z,83.10
2018-08-24T05:17:01.916Z,83.10
2018-08-24T05:19:29.267Z,83.10
2018-08-24T05:21:56.626Z,83.20
2018-08-24T05:24:23.944Z,83.00
2018-08-24T05:26:51.276Z,82.90
2018-08-24T05:29:18.580Z,82.80
2018-08-24T05:31:46.699Z,82.70
2018-08-24T05:34:14.183Z,82.60
2018-08-24T05:36:41.526Z,82.50
2018-08-24T05:39:09.188Z,82.70
2018-08-24T05:41:36.535Z,82.50
2018-08-24T05:44:04.013Z,82.50
2018-08-24T05:46:31.560Z,82.50
2018-08-24T05:48:58.904Z,82.20
2018-08-24T05:51:26.191Z,82.20
2018-08-24T05:53:53.502Z,82.20
2018-08-24T05:56:21.088Z,82.20
2018-08-24T05:58:48.397Z,82.20
2018-08-24T06:01:15.727Z,82.10
2018-08-24T06:03:43.373Z,82.00
2018-08-24T06:06:10.692Z,81.80
2018-08-24T06:08:38.021Z,81.70
2018-08-24T06:11:05.730Z,81.60
2018-08-24T06:13:33.252Z,81.20
2018-08-24T06:16:00.614Z,81.10
2018-08-24T06:18:28.217Z,80.50
2018-08-24T06:20:55.543Z,80.40
2018-08-24T06:23:22.902Z,80.30
2018-08-24T06:25:50.471Z,80.10
2018-08-24T06:28:17.754Z,80.00
2018-08-24T06:30:45.063Z,79.80
2018-08-24T06:33:12.455Z,79.80
2018-08-24T06:35:39.763Z,80.00
2018-08-24T06:38:07.063Z,79.90
2018-08-24T06:40:34.596Z,80.30
2018-08-24T06:43:01.903Z,80.40
2018-08-24T06:45:29.214Z,80.40
2018-08-24T06:47:56.525Z,80.30
2018-08-24T06:50:23.824Z,79.80
2018-08-24T06:52:51.184Z,79.60
2018-08-24T06:55:18.473Z,78.80
2018-08-24T06:57:45.764Z,77.50
2018-08-24T07:00:13.125Z,77.50
2018-08-24T07:02:40.423Z,78.30
2018-08-24T07:05:08.145Z,77.10
2018-08-24T07:07:35.684Z,76.50
2018-08-24T07:10:03.020Z,75.90
2018-08-24T07:12:30.428Z,76.30
2018-08-24T07:14:57.903Z,76.50
2018-08-24T07:17:30.858Z,76.70
2018-08-24T07:19:58.522Z,77.00
2018-08-24T07:22:25.862Z,77.30
2018-08-24T07:24:53.144Z,77.60
2018-08-24T07:27:20.604Z,77.40
2018-08-24T07:29:48.077Z,77.40
2018-08-24T07:32:15.373Z,77.60
2018-08-24T07:34:42.712Z,77.30
2018-08-24T07:37:10.017Z,76.50
2018-08-24T07:39:37.404Z,76.00
2018-08-24T07:42:04.815Z,75.70
2018-08-24T07:44:36.733Z,75.60
2018-08-24T07:47:04.046Z,74.00
2018-08-24T07:49:31.455Z,71.20
2018-08-24T07:51:58.835Z,71.90
2018-08-24T07:54:26.137Z,71.80
2018-08-24T07:56:53.493Z,72.10
2018-08-24T07:59:20.767Z,71.20
2018-08-24T08:01:48.267Z,70.50
2018-08-24T08:04:15.588Z,70.40
2018-08-24T08:06:42.941Z,69.40
2018-08-24T08:09:10.260Z,67.50
2018-08-24T08:11:39.539Z,67.00
2018-08-24T08:14:07.209Z,66.20
2018-08-24T08:16:34.732Z,66.90
2018-08-24T08:19:02.059Z,64.40
2018-08-24T08:21:29.729Z,63.90
2018-08-24T08:23:57.108Z,62.90
2018-08-24T08:26:24.685Z,63.30
2018-08-24T08:28:51.988Z,60.80
2018-08-24T08:31:19.315Z,62.40
2018-08-24T08:33:46.680Z,60.40
2018-08-24T08:36:13.992Z,61.00
2018-08-24T08:38:41.375Z,59.10
2018-08-24T08:41:08.685Z,61.10
2018-08-24T08:43:36.039Z,61.10
2018-08-24T08:46:03.355Z,61.40
2018-08-24T08:48:30.882Z,61.30
2018-08-24T08:50:58.335Z,62.20
2018-08-24T08:53:25.641Z,63.30
2018-08-24T08:55:52.955Z,62.30
2018-08-24T08:58:20.268Z,61.30
2018-08-24T09:00:47.556Z,61.30
2018-08-24T09:03:14.919Z,60.90
2018-08-24T09:05:42.292Z,59.00
2018-08-24T09:08:09.577Z,58.50
2018-08-24T09:10:36.859Z,59.50
2018-08-24T09:13:04.214Z,59.00
2018-08-24T09:15:31.675Z,59.90
2018-08-24T09:18:04.815Z,59.50
2018-08-24T09:20:37.800Z,59.60
2018-08-24T09:23:10.940Z,58.60
2018-08-24T09:25:43.995Z,58.10
2018-08-24T09:28:16.957Z,57.50
2018-08-24T09:30:48.332Z,55.40
2018-08-24T09:33:15.718Z,54.50
2018-08-24T09:35:43.016Z,53.60
2018-08-24T09:38:10.327Z,52.70
2018-08-24T09:40:43.268Z,52.50
2018-08-24T09:43:16.202Z,51.70
2018-08-24T09:45:43.540Z,52.00
2018-08-24T09:48:16.591Z,53.50
2018-08-24T09:51:52.499Z,52.50
2018-08-24T09:54:19.792Z,51.40
2018-08-24T09:56:47.174Z,54.00
2018-08-24T09:59:14.667Z,53.00
2018-08-24T10:01:47.682Z,53.20
2018-08-24T10:04:20.595Z,53.40
2018-08-24T10:06:53.637Z,53.40
2018-08-24T10:09:20.957Z,54.30
2018-08-24T10:11:48.253Z,53.70
2018-08-24T10:14:15.587Z,55.10
2018-08-24T10:16:42.991Z,55.10
2018-08-24T10:19:13.479Z,55.10
2018-08-24T10:21:40.825Z,55.70
2018-08-24T10:24:08.403Z,55.40
2018-08-24T10:26:35.753Z,54.30
2018-08-24T10:29:03.308Z,53.80
2018-08-24T10:31:30.601Z,52.00
2018-08-24T10:33:58.025Z,50.10
2018-08-24T10:36:25.570Z,51.20
2018-08-24T10:38:52.924Z,51.60
2018-08-24T10:41:20.193Z,50.90
2018-08-24T10:43:47.509Z,51.60
2018-08-24T10:46:14.801Z,51.30
2018-08-24T10:48:42.323Z,52.50
2018-08-24T10:51:09.620Z,51.90
2018-08-24T10:53:37.147Z,52.10
2018-08-24T10:56:04.728Z,51.20
2018-08-24T10:58:31.999Z,48.60
2018-08-24T11:00:59.296Z,47.90
2018-08-24T11:03:26.627Z,47.90
2018-08-24T11:05:54.117Z,48.90
2018-08-24T11:08:21.424Z,49.90
2018-08-24T11:10:48.703Z,49.40
2018-08-24T11:13:15.989Z,50.10
2018-08-24T11:15:43.752Z,49.80
2018-08-24T11:18:11.406Z,49.10
2018-08-24T11:20:39.987Z,48.50
2018-08-24T11:23:07.667Z,49.20
2018-08-24T11:25:34.921Z,49.50
2018-08-24T11:28:02.464Z,46.00
2018-08-24T11:30:29.758Z,48.30
2018-08-24T11:32:57.547Z,47.80
2018-08-24T11:35:25.001Z,48.70
2018-08-24T11:37:52.295Z,47.70
2018-08-24T11:40:19.967Z,48.30
2018-08-24T11:42:47.516Z,45.80
2018-08-24T11:45:15.070Z,44.80
2018-08-24T11:47:42.422Z,46.50
2018-08-24T11:50:09.731Z,45.00
2018-08-24T11:52:37.347Z,43.70
2018-08-24T11:55:04.947Z,44.20
2018-08-24T11:57:32.236Z,45.10
2018-08-24T11:59:59.723Z,45.60
2018-08-24T12:02:27.056Z,46.80
2018-08-24T12:04:54.365Z,47.30
2018-08-24T12:07:21.675Z,48.50
2018-08-24T12:09:49.140Z,47.40
2018-08-24T12:12:16.518Z,47.90
2018-08-24T12:14:43.809Z,48.50
2018-08-24T12:17:13.276Z,48.70
2018-08-24T12:19:40.547Z,47.80
2018-08-24T12:22:07.850Z,48.00
2018-08-24T12:24:35.174Z,48.30
2018-08-24T12:27:02.539Z,46.80
2018-08-24T12:29:29.869Z,46.40
2018-08-24T12:31:57.243Z,47.00
2018-08-24T12:34:24.604Z,47.60
2018-08-24T12:36:52.047Z,46.20
2018-08-24T12:39:19.391Z,45.60
2018-08-24T12:41:46.733Z,45.20
2018-08-24T12:44:14.057Z,45.40
2018-08-24T12:46:41.385Z,44.30
2018-08-24T12:49:08.726Z,45.10
2018-08-24T12:51:36.086Z,44.40
2018-08-24T12:54:03.415Z,45.00
2018-08-24T12:56:30.717Z,46.00
2018-08-24T13:01:41.507Z,45.50
2018-08-24T13:04:08.779Z,44.60
2018-08-24T13:06:36.131Z,44.30
2018-08-24T13:09:05.048Z,44.80
2018-08-24T13:11:32.355Z,44.80
2018-08-24T13:13:59.660Z,45.70
2018-08-24T13:16:28.236Z,45.20
2018-08-24T13:18:55.668Z,46.00
2018-08-24T13:21:22.980Z,45.10
2018-08-24T13:23:50.372Z,45.40
2018-08-24T13:26:17.676Z,44.90
2018-08-24T13:28:45.012Z,45.50
2018-08-24T13:31:12.371Z,45.60
2018-08-24T13:33:39.785Z,45.00
2018-08-24T13:36:07.156Z,45.20
2018-08-24T13:38:34.484Z,46.20
2018-08-24T13:41:01.916Z,45.80
2018-08-24T13:43:29.267Z,45.90
2018-08-24T13:45:56.617Z,44.40
2018-08-24T13:48:24.222Z,44.50
2018-08-24T13:50:51.561Z,44.70
2018-08-24T13:53:18.904Z,44.40
2018-08-24T13:55:46.489Z,45.20
2018-08-24T13:58:13.911Z,44.40
2018-08-24T14:00:41.275Z,42.10
2018-08-24T14:03:09.003Z,42.20
2018-08-24T14:05:36.297Z,42.30
2018-08-24T14:08:03.621Z,41.70
2018-08-24T14:10:30.963Z,40.70
2018-08-24T14:12:58.528Z,42.10
2018-08-24T14:15:25.823Z,42.80
2018-08-24T14:17:53.905Z,43.80
2018-08-24T14:20:22.700Z,43.60
2018-08-24T14:22:50.262Z,43.60
2018-08-24T14:25:18.023Z,41.40
2018-08-24T14:27:45.371Z,42.50
2018-08-24T14:30:12.793Z,42.50
2018-08-24T14:32:40.135Z,42.80
2018-08-24T14:35:07.641Z,42.50
2018-08-24T14:37:35.064Z,43.20
2018-08-24T14:40:02.516Z,43.50
2018-08-24T14:42:29.878Z,44.40
2018-08-24T14:44:57.270Z,43.30
2018-08-24T14:47:24.648Z,42.80
2018-08-24T14:49:52.078Z,42.60
2018-08-24T14:52:19.431Z,43.20
2018-08-24T14:54:46.751Z,43.60
2018-08-24T14:57:14.707Z,42.70
2018-08-24T14:59:42.014Z,42.20
2018-08-24T15:02:09.343Z,42.30
2018-08-24T15:04:37.000Z,42.80
2018-08-24T15:07:04.815Z,42.00
2018-08-24T15:09:32.173Z,42.30
2018-08-24T15:11:59.511Z,41.70
2018-08-24T15:14:26.948Z,41.20
2018-08-24T15:16:54.491Z,41.10
2018-08-24T15:19:21.839Z,41.70
2018-08-24T15:21:49.224Z,40.70
2018-08-24T15:24:16.690Z,40.10
2018-08-24T15:26:44.036Z,40.40
2018-08-24T15:29:11.427Z,41.90
2018-08-24T15:31:38.732Z,41.40
2018-08-24T15:34:06.080Z,42.10
2018-08-24T15:36:33.439Z,42.40
2018-08-24T15:39:00.768Z,42.50
2018-08-24T15:41:28.103Z,43.10
2018-08-24T15:43:55.423Z,43.00
2018-08-24T15:46:22.772Z,43.50
2018-08-24T15:48:50.091Z,44.10
2018-08-24T15:51:17.427Z,43.00
2018-08-24T15:53:44.754Z,42.60
2018-08-24T15:56:12.048Z,43.20
2018-08-24T15:58:39.405Z,44.00
2018-08-24T16:01:06.886Z,42.50
2018-08-24T16:03:34.211Z,42.80
2018-08-24T16:06:01.561Z,43.10
2018-08-24T16:08:29.069Z,43.20
2018-08-24T16:10:56.379Z,43.80
2018-08-24T16:13:23.728Z,43.80
2018-08-24T16:15:51.045Z,44.20
2018-08-24T16:18:23.300Z,44.20
2018-08-24T16:20:51.182Z,44.80
2018-08-24T16:23:18.479Z,45.10
2018-08-24T16:25:46.177Z,45.40
2018-08-24T16:28:13.745Z,45.50
2018-08-24T16:30:41.067Z,45.40
2018-08-24T16:33:08.432Z,45.10
2018-08-24T16:35:35.774Z,44.50
2018-08-24T16:38:03.107Z,44.70
2018-08-24T16:40:30.412Z,44.60
2018-08-24T16:42:57.731Z,44.60
2018-08-24T16:45:25.070Z,44.00
2018-08-24T16:47:52.780Z,44.30
2018-08-24T16:50:20.347Z,44.30
2018-08-24T16:52:47.674Z,44.30
2018-08-24T16:55:15.016Z,44.60
2018-08-24T16:57:42.417Z,45.10
2018-08-24T17:00:09.756Z,44.90
2018-08-24T17:02:37.431Z,44.70
2018-08-24T17:05:05.332Z,44.60
2018-08-24T17:07:32.673Z,43.90
2018-08-24T17:10:00.000Z,44.00
2018-08-24T17:12:27.769Z,44.20
2018-08-24T17:14:55.144Z,44.20
2018-08-24T17:17:22.469Z,44.80
2018-08-24T17:19:49.864Z,44.30
2018-08-24T17:22:17.202Z,44.60
2018-08-24T17:24:44.741Z,44.70
2018-08-24T17:27:12.125Z,44.60
2018-08-24T17:29:39.415Z,44.50
2018-08-24T17:32:06.907Z,43.90
2018-08-24T17:34:41.071Z,44.20
2018-08-24T17:37:08.405Z,44.00
2018-08-24T17:39:35.752Z,44.20
2018-08-24T17:42:03.073Z,43.90
2018-08-24T17:44:30.642Z,43.30
2018-08-24T17:46:58.024Z,43.70
2018-08-24T17:49:25.386Z,43.90
2018-08-24T17:51:52.715Z,44.30
2018-08-24T17:54:20.054Z,44.40
2018-08-24T17:56:47.377Z,44.20
2018-08-24T17:59:14.719Z,44.30
2018-08-24T18:01:42.072Z,44.30
2018-08-24T18:04:09.581Z,44.90
2018-08-24T18:06:36.915Z,45.00
2018-08-24T18:09:07.077Z,45.10
2018-08-24T18:11:34.533Z,45.20
2018-08-24T18:14:01.965Z,44.80
2018-08-24T18:16:29.277Z,45.10
2018-08-24T18:18:57.117Z,45.30
2018-08-24T18:21:24.656Z,45.50
2018-08-24T18:23:52.554Z,45.60
2018-08-24T18:26:20.040Z,45.60
2018-08-24T18:28:47.349Z,45.60
2018-08-24T18:31:14.692Z,45.50
2018-08-24T18:33:41.999Z,45.80
2018-08-24T18:36:09.325Z,45.80
2018-08-24T18:38:36.664Z,46.60
2018-08-24T18:41:04.212Z,46.00
2018-08-24T18:43:31.528Z,45.90
2018-08-24T18:45:58.852Z,45.80
2018-08-24T18:48:26.233Z,46.00
2018-08-24T18:50:53.587Z,46.00
2018-08-24T18:53:20.881Z,46.10
2018-08-24T18:55:48.196Z,46.10
2018-08-24T18:58:15.521Z,46.20
2018-08-24T19:00:42.996Z,46.10
2018-08-24T19:03:10.426Z,46.30
2018-08-24T19:05:37.732Z,46.40
2018-08-24T19:08:10.129Z,46.60
2018-08-24T19:10:43.523Z,46.80
2018-08-24T19:13:17.889Z,46.80
2018-08-24T19:15:46.445Z,47.00
2018-08-24T19:18:19.395Z,47.30
2018-08-24T19:20:52.502Z,47.40
2018-08-24T19:23:19.767Z,47.40
2018-08-24T19:25:47.079Z,47.40
2018-08-24T19:28:20.056Z,47.40
2018-08-24T19:30:47.404Z,47.50
2018-08-24T19:33:14.727Z,47.70
2018-08-24T19:35:42.111Z,47.60
2018-08-24T19:38:09.417Z,47.60
2018-08-24T19:40:43.473Z,47.70
2018-08-24T19:43:10.801Z,47.90
2018-08-24T19:45:38.224Z,48.10
2018-08-24T19:48:11.261Z,49.00
2018-08-24T19:50:38.760Z,48.40
2018-08-24T19:53:06.069Z,48.40
2018-08-24T19:55:33.379Z,48.40
2018-08-24T19:58:06.513Z,48.70
2018-08-24T20:00:34.055Z,48.60
2018-08-24T20:03:01.312Z,48.80
2018-08-24T20:05:28.606Z,48.90
2018-08-24T20:08:01.676Z,48.90
2018-08-24T20:10:28.993Z,49.00
2018-08-24T20:12:56.324Z,49.10
2018-08-24T20:15:29.232Z,49.20
2018-08-24T20:17:56.531Z,49.20
2018-08-24T20:20:23.836Z,49.30
2018-08-24T20:22:51.473Z,49.40
2018-08-24T20:25:18.771Z,49.40
2018-08-24T20:27:46.679Z,49.50
2018-08-24T20:30:14.179Z,49.60
2018-08-24T20:32:41.475Z,49.60
2018-08-24T20:35:08.848Z,49.70
2018-08-24T20:37:36.307Z,49.90
2018-08-24T20:40:04.522Z,50.00
2018-08-24T20:42:31.804Z,50.00
2018-08-24T20:44:59.120Z,50.10
2018-08-24T20:47:26.484Z,50.20
2018-08-24T20:50:00.680Z,50.40
2018-08-24T20:52:28.368Z,50.50
2018-08-24T20:54:55.648Z,50.70
2018-08-24T20:57:22.931Z,50.70
2018-08-24T20:59:50.399Z,50.90
2018-08-24T21:02:17.765Z,51.00
2018-08-24T21:04:45.123Z,51.10
2018-08-24T21:07:12.602Z,51.40
2018-08-24T21:09:39.911Z,51.60
2018-08-24T21:12:07.247Z,51.50
2018-08-24T21:14:35.245Z,51.70
2018-08-24T21:17:02.903Z,51.80
2018-08-24T21:19:30.397Z,51.80
2018-08-24T21:21:58.276Z,51.90
2018-08-24T21:24:25.980Z,52.00
2018-08-24T21:26:53.524Z,52.20
2018-08-24T21:29:20.833Z,52.20
2018-08-24T21:31:48.178Z,52.20
2018-08-24T21:34:15.803Z,52.20
2018-08-24T21:36:43.133Z,52.20
2018-08-24T21:39:11.463Z,52.30
2018-08-24T21:41:39.333Z,52.30
2018-08-24T21:44:06.636Z,52.30
2018-08-24T21:46:33.954Z,52.40
2018-08-24T21:49:01.830Z,52.50
2018-08-24T21:51:29.198Z,52.30
2018-08-24T21:53:56.503Z,52.40
2018-08-24T21:56:24.276Z,52.40
2018-08-24T21:58:51.569Z,52.20
2018-08-24T22:01:18.927Z,52.20
2018-08-24T22:03:46.247Z,52.20
2018-08-24T22:06:13.599Z,52.00
2018-08-24T22:08:40.883Z,52.10
2018-08-24T22:11:08.276Z,52.10
2018-08-24T22:13:35.599Z,52.10
2018-08-24T22:16:02.908Z,51.90
2018-08-24T22:18:30.219Z,52.20
2018-08-24T22:20:57.543Z,52.20
2018-08-24T22:23:24.844Z,52.20
2018-08-24T22:25:52.168Z,52.30
2018-08-24T22:28:19.473Z,52.10
2018-08-24T22:30:46.799Z,52.00
2018-08-24T22:33:14.103Z,52.00
2018-08-24T22:35:41.389Z,52.10
2018-08-24T22:38:08.875Z,52.00
2018-08-24T22:40:36.243Z,52.10
2018-08-24T22:43:03.864Z,52.10
2018-08-24T22:45:31.352Z,52.10
2018-08-24T22:47:58.693Z,52.10
2018-08-24T22:50:26.026Z,52.10
2018-08-24T22:52:53.387Z,52.10
2018-08-24T22:55:20.707Z,52.10
2018-08-24T22:57:48.023Z,52.10
2018-08-24T23:00:15.385Z,52.20
2018-08-24T23:02:42.831Z,52.30
2018-08-24T23:05:10.388Z,52.20
2018-08-24T23:07:37.721Z,52.30
2018-08-24T23:10:11.904Z,52.50
2018-08-24T23:12:39.234Z,52.50
2018-08-24T23:15:06.650Z,52.50
2018-08-24T23:17:33.963Z,52.60
2018-08-24T23:20:01.280Z,52.50
2018-08-24T23:22:28.594Z,53.30
2018-08-24T23:24:55.915Z,52.70
2018-08-24T23:27:23.439Z,52.70
2018-08-24T23:29:50.753Z,52.80
2018-08-24T23:32:18.111Z,52.90
2018-08-24T23:34:45.579Z,53.10
2018-08-24T23:37:12.896Z,53.10
2018-08-24T23:39:40.307Z,53.10
2018-08-24T23:42:07.667Z,53.20
2018-08-24T23:44:34.987Z,53.10
2018-08-24T23:47:02.483Z,53.30
2018-08-24T23:49:30.032Z,54.10
2018-08-24T23:51:57.359Z,53.40
2018-08-24T23:54:24.628Z,53.70
2018-08-24T23:56:52.184Z,53.80
2018-08-24T23:59:19.488Z,53.90
